Time;durP1;ratioP1;P1;durP2;ratioP2;P2;SDS_P1;SDS_P2;PMS_P1;PMS_P2;Temp;Humidity;BMP_temperature;BMP_pressure;BME280_temperature;BME280_humidity;BME280_pressure;Samples;Min_cycle;Max_cycle;Signal;HPM_P1;HPM_P2
2023/05/11 00:00:18;;;;;;;11.48;5.30;;;11.70;99.90;;;10.67;78.26;101034.91;4986533;28;20061;-76
2023/05/11 00:02:44;;;;;;;9.90;5.68;;;11.70;99.90;;;10.65;78.72;101033.28;4989294;28;20556;-77
2023/05/11 00:05:10;;;;;;;7.03;5.30;;;11.70;99.90;;;10.61;79.46;101032.53;5005843;28;20569;-75
2023/05/11 00:07:36;;;;;;;17.42;5.80;;;11.70;99.90;;;10.61;78.88;101031.69;4991026;28;20438;-75
2023/05/11 00:10:02;;;;;;;10.13;5.40;;;11.70;99.90;;;10.59;78.27;101031.75;4986815;28;20042;-74
2023/05/11 00:12:27;;;;;;;14.32;5.75;;;11.60;99.90;;;10.58;78.38;101039.69;4989791;28;20118;-76
2023/05/11 00:14:53;;;;;;;19.77;6.13;;;11.70;99.90;;;10.58;78.54;101031.78;4969910;28;20498;-75
2023/05/11 00:17:19;;;;;;;8.60;6.03;;;11.60;99.90;;;10.56;78.30;101037.16;4985765;28;20046;-76
2023/05/11 00:19:45;;;;;;;15.88;6.50;;;11.60;99.90;;;10.54;78.75;101031.09;4988548;28;20609;-75
2023/05/11 00:22:11;;;;;;;13.90;6.10;;;11.60;99.90;;;10.55;79.38;101035.41;4985243;28;20031;-76
2023/05/11 00:24:38;;;;;;;9.73;6.40;;;11.60;99.90;;;10.57;79.42;101035.38;4989865;28;20432;-74
2023/05/11 00:27:07;;;;;;;11.65;6.28;;;11.60;99.90;;;10.53;81.08;101039.03;4989882;28;20057;-75
2023/05/11 00:29:32;;;;;;;13.18;6.15;;;11.70;99.90;;;10.59;81.03;101038.78;4975308;28;20066;-76
2023/05/11 00:31:58;;;;;;;16.67;6.82;;;11.70;99.90;;;10.58;81.07;101037.06;4989133;28;20041;-74
2023/05/11 00:34:24;;;;;;;10.43;6.32;;;11.70;99.90;;;10.58;81.48;101044.97;4981644;28;20030;-76
2023/05/11 00:36:50;;;;;;;12.45;6.82;;;11.70;99.90;;;10.58;82.26;101037.94;4984893;28;20121;-74
2023/05/11 00:39:17;;;;;;;10.15;6.65;;;11.70;99.90;;;10.58;82.60;101037.94;4985858;28;20118;-75
2023/05/11 00:41:42;;;;;;;14.13;6.95;;;11.70;99.90;;;10.60;82.33;101041.34;4988176;28;20504;-75
2023/05/11 00:44:08;;;;;;;10.95;6.20;;;11.70;99.90;;;10.56;82.40;101039.78;4986264;28;20041;-75
2023/05/11 00:46:35;;;;;;;13.15;7.03;;;11.70;99.90;;;10.55;82.50;101038.06;4989919;28;20042;-74
2023/05/11 00:49:01;;;;;;;12.23;6.50;;;11.70;99.90;;;10.55;82.62;101042.47;4971150;28;20026;-74
2023/05/11 00:51:27;;;;;;;9.95;6.55;;;11.70;99.90;;;10.58;82.58;101037.06;4971007;28;20064;-74
2023/05/11 00:53:53;;;;;;;17.45;6.85;;;11.70;99.90;;;10.58;82.63;101037.06;4991387;28;20571;-74
2023/05/11 00:56:19;;;;;;;13.45;6.75;;;11.70;99.90;;;10.59;82.50;101033.53;4988376;28;20042;-75
2023/05/11 00:58:44;;;;;;;12.45;7.35;;;11.70;99.90;;;10.57;82.58;101043.25;4967697;28;20031;-76
2023/05/11 01:01:10;;;;;;;14.30;7.10;;;11.70;99.90;;;10.58;82.55;101034.44;4981523;28;20034;-75
2023/05/11 01:03:36;;;;;;;12.25;6.55;;;11.70;99.90;;;10.58;83.13;101042.31;4967689;28;20035;-75
2023/05/11 01:06:24;;;;;;;9.60;6.68;;;11.70;99.90;;;10.61;82.67;101039.59;4950621;28;20019;-76
2023/05/11 01:09:14;;;;;;;10.50;6.72;;;11.70;99.90;;;10.61;82.73;101035.16;4980728;28;20042;-74
2023/05/11 01:12:08;;;;;;;12.38;6.75;;;11.70;99.90;;;10.59;82.42;101038.78;4986216;28;20064;-74
2023/05/11 01:14:56;;;;;;;16.05;6.65;;;11.70;99.90;;;10.61;82.88;101042.22;4967604;28;20047;-75
2023/05/11 01:17:44;;;;;;;14.40;7.05;;;11.80;99.90;;;10.67;83.41;101041.97;4970304;28;20415;-76
2023/05/11 01:20:19;;;;;;;10.82;6.60;;;11.80;99.90;;;10.73;83.08;101041.69;4987115;28;20032;-75
2023/05/11 01:23:19;;;;;;;15.07;7.10;;;11.90;99.90;;;10.83;82.33;101043.00;4947399;28;20774;-76
2023/05/11 01:26:37;;;;;;;12.65;6.30;;;11.90;99.90;;;10.87;82.09;101049.03;4913999;28;20123;-75
2023/05/11 01:29:37;;;;;;;9.32;6.05;;;11.90;99.90;;;10.87;81.78;101043.75;4967498;28;20535;-75
2023/05/11 01:32:09;;;;;;;14.48;6.50;;;12.00;99.90;;;10.87;82.98;101049.88;4983842;28;20031;-75
2023/05/11 01:34:38;;;;;;;12.30;6.78;;;12.00;99.90;;;10.94;82.20;101045.19;4966562;28;20508;-75
2023/05/11 01:37:13;;;;;;;16.67;6.38;;;12.00;99.90;;;10.99;82.43;101048.50;4986514;28;20035;-76
2023/05/11 01:39:57;;;;;;;18.85;7.05;;;12.10;99.90;;;11.01;81.98;101051.91;4946541;28;20042;-75
2023/05/11 01:42:42;;;;;;;15.85;6.97;;;12.10;99.90;;;11.04;81.37;101051.78;4987990;28;20084;-75
2023/05/11 01:45:11;;;;;;;10.93;7.00;;;12.10;99.90;;;11.04;81.50;101059.69;4980543;28;20042;-75
2023/05/11 01:47:39;;;;;;;11.52;6.35;;;12.10;99.90;;;11.08;81.97;101056.00;4984864;28;20049;-75
2023/05/11 01:50:07;;;;;;;15.02;6.85;;;12.20;99.90;;;11.16;80.93;101063.56;4988570;28;20101;-75
2023/05/11 01:52:36;;;;;;;12.35;6.15;;;12.20;99.90;;;11.23;80.81;101066.78;4986265;28;20571;-75
2023/05/11 01:55:05;;;;;;;10.10;6.38;;;12.20;99.90;;;11.29;80.16;101067.41;4968917;28;20113;-75
2023/05/11 01:57:32;;;;;;;15.82;6.47;;;12.30;99.90;;;11.31;80.31;101069.09;4949846;28;20065;-74
2023/05/11 02:00:00;;;;;;;10.68;6.43;;;12.30;99.90;;;11.36;79.77;101073.25;4987349;28;20244;-75
2023/05/11 02:02:27;;;;;;;11.15;6.15;;;12.40;99.90;;;11.38;80.03;101075.78;4983597;28;20065;-75
2023/05/11 02:04:56;;;;;;;13.95;5.80;;;12.50;99.90;;;11.47;79.76;101080.69;5003422;28;20046;-75
2023/05/11 02:07:24;;;;;;;11.25;6.07;;;12.50;99.90;;;11.54;78.72;101089.16;4979420;28;20501;-75
2023/05/11 02:09:52;;;;;;;10.93;6.15;;;12.50;99.90;;;11.54;79.42;101086.53;4970993;28;20034;-76
2023/05/11 02:12:19;;;;;;;16.05;6.43;;;12.60;99.90;;;11.56;79.02;101088.16;4968830;28;20034;-76
2023/05/11 02:14:47;;;;;;;12.02;6.50;;;12.60;99.90;;;11.59;78.78;101095.09;4953575;28;20882;-75
2023/05/11 02:17:16;;;;;;;9.85;6.47;;;12.60;99.90;;;11.57;78.97;101095.13;4950048;28;20510;-75
2023/05/11 02:19:44;;;;;;;15.85;6.22;;;12.60;99.90;;;11.62;79.12;101097.56;4967501;28;20140;-76
2023/05/11 02:22:11;;;;;;;14.25;7.38;;;12.60;99.90;;;11.63;79.39;101094.03;4951753;28;20047;-74
2023/05/11 02:24:38;;;;;;;13.40;7.20;;;12.70;99.90;;;11.66;79.14;101102.66;4952175;28;20039;-75
2023/05/11 02:27:04;;;;;;;9.90;6.60;;;12.60;99.90;;;11.58;80.64;101101.28;4958225;28;20031;-75
2023/05/11 02:29:31;;;;;;;14.07;7.47;;;12.70;99.90;;;11.59;80.85;101098.56;4941781;28;20407;-74
2023/05/11 02:32:11;;;;;;;11.05;6.72;;;12.70;99.90;;;11.58;80.92;101096.88;4966512;28;20523;-75
2023/05/11 02:35:00;;;;;;;15.95;7.47;;;12.70;99.90;;;11.58;80.79;101104.78;4941061;28;20042;-75
2023/05/11 02:37:29;;;;;;;10.80;6.93;;;12.70;99.90;;;11.54;81.70;101095.28;4999506;28;20572;-76
2023/05/11 02:40:03;;;;;;;11.32;7.15;;;12.70;99.90;;;11.55;82.00;101101.41;4992174;28;20042;-75
2023/05/11 02:42:38;;;;;;;11.93;6.40;;;12.70;99.90;;;11.62;81.19;101101.09;4982085;28;20038;-76
2023/05/11 02:45:07;;;;;;;13.48;7.05;;;12.70;99.90;;;11.62;80.76;101103.72;4952446;28;20514;-75
2023/05/11 02:47:41;;;;;;;12.23;7.40;;;12.70;99.90;;;11.60;81.10;101099.44;4978331;28;20045;-75
2023/05/11 02:50:08;;;;;;;15.60;7.47;;;12.70;99.90;;;11.61;80.78;101102.00;4982396;28;20042;-76
2023/05/11 02:52:44;;;;;;;15.50;7.10;;;12.70;99.90;;;11.68;80.16;101106.09;4964946;28;20045;-75
2023/05/11 02:55:11;;;;;;;11.52;7.18;;;12.70;99.90;;;11.73;80.07;101112.91;4962131;28;20041;-74
2023/05/11 02:57:38;;;;;;;11.48;6.95;;;12.70;99.90;;;11.62;80.41;101111.63;4949870;28;20035;-75
2023/05/11 03:00:04;;;;;;;10.25;6.72;;;12.70;99.90;;;11.67;80.96;101108.78;4950576;28;20038;-75
2023/05/11 03:02:30;;;;;;;14.05;6.53;;;12.80;99.90;;;11.74;80.27;101114.63;4972862;28;20038;-76
2023/05/11 03:04:56;;;;;;;11.93;6.90;;;12.80;99.90;;;11.76;80.20;101110.16;4970448;28;20026;-75
2023/05/11 03:07:22;;;;;;;;;;;12.80;99.90;;;11.70;80.58;101109.53;4985913;28;20073;-75
2023/05/11 03:09:48;;;;;;;17.98;7.18;;;12.70;99.90;;;11.64;80.86;101111.53;5004590;28;19918;-75
2023/05/11 03:12:14;;;;;;;15.15;6.35;;;12.80;99.90;;;11.73;80.10;101118.19;4974420;28;20448;-75
2023/05/11 03:14:41;;;;;;;12.50;7.00;;;12.80;99.90;;;11.67;80.55;101117.56;4954471;28;20054;-76
2023/05/11 03:17:08;;;;;;;16.08;7.15;;;12.80;99.90;;;11.67;80.31;101117.56;5000169;28;20038;-76
2023/05/11 03:19:35;;;;;;;17.00;7.13;;;12.80;99.90;;;11.74;79.59;101119.91;4991139;28;20495;-75
2023/05/11 03:22:03;;;;;;;11.15;6.57;;;12.80;99.90;;;11.78;79.18;101114.44;4975361;28;20821;-75
2023/05/11 03:24:30;;;;;;;13.60;7.40;;;12.80;99.90;;;11.75;78.79;101121.63;4986050;28;20035;-74
2023/05/11 03:26:58;;;;;;;17.13;7.22;;;12.80;99.90;;;11.81;78.27;101119.56;4981068;28;20041;-75
2023/05/11 03:29:26;;;;;;;11.88;6.75;;;12.80;99.90;;;11.82;78.48;101123.06;4956833;28;20030;-75
2023/05/11 03:31:53;;;;;;;15.65;6.60;;;12.80;99.90;;;11.80;77.90;101120.50;4987465;28;20041;-75
2023/05/11 03:34:19;;;;;;;18.60;6.97;;;12.80;99.90;;;11.79;77.98;101126.72;4978456;28;20065;-76
2023/05/11 03:36:47;;;;;;;13.43;6.70;;;12.80;99.90;;;11.74;77.63;101126.03;4985921;28;20494;-74
2023/05/11 03:39:15;;;;;;;17.35;7.05;;;12.80;99.90;;;11.78;77.30;101124.13;4986089;28;20027;-75
2023/05/11 03:41:45;;;;;;;13.32;6.18;;;12.80;99.90;;;11.62;77.33;101126.59;4985731;28;20101;-75
2023/05/11 03:44:13;;;;;;;11.48;6.32;;;12.70;99.90;;;11.58;77.81;101125.88;4976841;28;20035;-75
2023/05/11 03:46:42;;;;;;;15.07;6.40;;;12.70;99.90;;;11.57;78.11;101131.22;4984219;28;20110;-75
2023/05/11 03:49:08;;;;;;;14.43;6.95;;;12.70;99.90;;;11.57;78.15;101129.44;4974998;28;20045;-75
2023/05/11 03:51:35;;;;;;;15.65;6.75;;;12.70;99.90;;;11.52;78.34;101130.56;4982582;28;20078;-75
2023/05/11 03:54:01;;;;;;;13.07;6.30;;;12.60;99.90;;;11.56;77.92;101135.66;4990403;28;21623;-76
2023/05/11 03:56:27;;;;;;;11.90;6.35;;;12.60;99.90;;;11.58;77.31;101130.31;4987375;28;20033;-75
2023/05/11 03:58:53;;;;;;;13.13;6.68;;;12.60;99.90;;;11.48;77.21;101128.06;4983607;28;20046;-75
2023/05/11 04:01:21;;;;;;;11.75;6.10;;;12.60;99.90;;;11.40;77.46;101131.94;4984960;28;21471;-75
2023/05/11 04:03:52;;;;;;;11.43;6.05;;;12.60;99.90;;;11.57;77.42;101137.34;4967114;28;20038;-76
2023/05/11 04:06:18;;;;;;;13.95;6.68;;;12.60;99.90;;;11.57;77.62;101137.34;4970278;28;20067;-75
2023/05/11 04:08:44;;;;;;;13.88;6.55;;;12.60;99.90;;;11.64;76.97;101137.94;4957575;28;20110;-76
2023/05/11 04:11:10;;;;;;;16.05;6.45;;;12.70;99.90;;;11.69;77.07;101147.34;4958129;28;20050;-75
2023/05/11 04:13:36;;;;;;;9.82;6.32;;;12.70;99.90;;;11.79;77.09;101139.03;4952586;28;20050;-76
2023/05/11 04:16:02;;;;;;;12.70;5.93;;;12.80;99.90;;;11.82;76.30;101144.19;4953948;28;20081;-75
2023/05/11 04:18:28;;;;;;;13.95;6.47;;;13.00;99.90;;;12.20;75.09;101138.94;4955271;28;20026;-76
2023/05/11 04:20:55;;;;;;;13.75;6.63;;;13.30;99.90;;;12.90;73.46;101151.41;4952578;28;20042;-75
2023/05/11 04:23:21;;;;;;;15.02;6.72;;;14.30;99.90;;;14.35;69.93;101171.19;4950355;28;20066;-77
2023/05/11 04:25:52;;;;;;;10.15;5.80;;;15.40;99.90;;;15.64;65.31;101173.50;4950990;28;20036;-75
2023/05/11 04:28:18;;;;;;;8.75;5.75;;;16.10;99.90;;;16.22;62.58;101184.16;4944199;28;20173;-75
2023/05/11 04:30:43;;;;;;;9.15;5.68;;;16.60;99.90;;;16.14;60.94;101177.53;4956029;28;20120;-75
2023/05/11 04:33:10;;;;;;;;;;;16.60;99.90;;;15.27;62.66;101161.56;4951652;28;20113;-76
2023/05/11 04:35:38;;;;;;;15.07;5.95;;;15.70;99.90;;;14.56;64.88;101152.44;4970286;28;20531;-75
2023/05/11 04:38:05;;;;;;;11.10;6.00;;;15.40;99.90;;;14.12;66.07;101153.94;4951784;28;20504;-75
2023/05/11 04:40:30;;;;;;;9.70;5.85;;;15.10;99.90;;;13.80;67.30;101154.78;4971970;28;20027;-75
2023/05/11 04:42:56;;;;;;;12.38;5.70;;;14.90;99.90;;;13.67;68.05;101152.81;4953158;28;20113;-75
2023/05/11 04:45:22;;;;;;;;;;;14.80;99.90;;;13.61;68.22;101154.94;4995818;28;20117;-75
2023/05/11 04:47:48;;;;;;;9.38;6.05;;;14.60;99.90;;;13.59;68.43;101155.00;4984484;28;20056;-76
2023/05/11 04:50:13;;;;;;;20.15;6.07;;;14.50;99.90;;;13.42;68.94;101157.66;4955980;28;20106;-75
2023/05/11 04:52:39;;;;;;;12.75;6.20;;;14.40;99.90;;;13.49;69.14;101153.75;4953327;28;20039;-77
2023/05/11 04:55:06;;;;;;;;;;;14.40;99.90;;;13.24;69.81;101147.06;4972333;28;20093;-74
2023/05/11 04:57:31;;;;;;;11.27;6.03;;;14.20;99.90;;;13.24;69.69;101157.66;4968834;28;19922;-76
2023/05/11 04:59:57;;;;;;;13.02;6.50;;;14.30;99.90;;;13.31;70.02;101158.22;4954225;28;20097;-75
2023/05/11 05:02:25;;;;;;;13.15;6.15;;;14.20;99.90;;;13.36;70.40;101165.91;4952592;28;20038;-74
2023/05/11 05:04:51;;;;;;;14.98;6.68;;;14.20;99.90;;;13.37;70.46;101165.84;4952808;28;20050;-75
2023/05/11 05:07:17;;;;;;;13.88;6.55;;;14.30;99.90;;;13.53;69.79;101166.75;4955471;28;20041;-75
2023/05/11 05:09:42;;;;;;;12.38;6.55;;;14.30;99.90;;;13.66;70.03;101166.97;4969492;28;20031;-75
2023/05/11 05:12:08;;;;;;;;;;;14.30;99.90;;;13.77;70.20;101176.97;4949993;28;20524;-76
2023/05/11 05:14:34;;;;;;;9.85;6.40;;;14.50;99.90;;;13.82;69.83;101182.03;4972996;28;19971;-75
2023/05/11 05:17:00;;;;;;;;;;;14.50;99.90;;;13.81;69.84;101181.19;4983852;28;20048;-75
2023/05/11 05:19:26;;;;;;;16.33;6.20;;;14.60;99.90;;;14.03;69.15;101187.97;5003914;28;19913;-75
2023/05/11 05:21:51;;;;;;;14.68;6.55;;;14.90;99.90;;;15.37;66.44;101198.09;4986100;28;21182;-75
2023/05/11 05:24:17;;;;;;;15.48;6.55;;;15.70;99.90;;;16.59;61.73;101215.41;4987903;28;20038;-76
2023/05/11 05:26:43;;;;;;;;;;;15.80;99.90;;;15.81;62.75;101201.72;4986057;28;20046;-75
2023/05/11 05:29:09;;;;;;;14.98;6.60;;;16.00;99.90;;;15.39;64.21;101198.84;4986692;28;20381;-76
2023/05/11 05:31:34;;;;;;;13.55;5.93;;;15.90;99.90;;;15.26;64.25;101200.53;4982779;28;20054;-76
2023/05/11 05:34:00;;;;;;;8.90;6.20;;;15.80;99.90;;;15.16;64.51;101204.66;4974509;28;20434;-77
2023/05/11 05:36:26;;;;;;;;;;;15.80;99.90;;;15.45;64.09;101205.59;4984951;28;20117;-75
2023/05/11 05:38:52;;;;;;;13.98;6.40;;;15.90;99.90;;;15.73;63.53;101211.94;4983521;28;19918;-75
2023/05/11 05:41:17;;;;;;;;;;;15.90;99.90;;;17.26;60.01;101225.28;4981962;28;20030;-75
2023/05/11 05:43:43;;;;;;;9.82;6.18;;;16.80;99.90;;;17.47;59.28;101232.78;4981941;28;19920;-75
2023/05/11 05:46:09;;;;;;;;;;;16.80;99.90;;;18.87;57.39;101253.19;4986715;28;20440;-75
2023/05/11 05:48:35;;;;;;;12.88;6.03;;;18.40;99.90;;;21.75;51.00;101284.06;4964708;28;19914;-75
2023/05/11 05:51:00;;;;;;;;;;;18.50;99.90;;;24.01;47.17;101317.66;4953190;28;20105;-76
2023/05/11 05:53:26;;;;;;;12.07;6.03;;;21.30;99.90;;;24.58;43.96;101312.25;4944239;28;19914;-74
2023/05/11 05:55:52;;;;;;;11.50;5.80;;;22.30;97.70;;;24.60;42.80;101321.03;4953017;28;20118;-75
2023/05/11 05:58:18;;;;;;;11.52;6.10;;;22.50;97.40;;;23.15;44.72;101302.22;4976973;28;20061;-76
2023/05/11 06:00:43;;;;;;;9.57;5.97;;;22.30;96.10;;;23.59;44.82;101309.91;4987695;28;20033;-75
2023/05/11 06:03:09;;;;;;;;;;;22.30;97.20;;;25.71;42.20;101356.78;4963745;28;20046;-76
2023/05/11 06:05:35;;;;;;;10.70;6.20;;;23.60;96.60;;;27.01;39.91;101364.03;4984667;28;20285;-76
2023/05/11 06:08:01;;;;;;;18.42;5.82;;;24.10;94.30;;;26.10;40.35;101367.25;4993084;28;20054;-76
2023/05/11 06:10:27;;;;;;;;;;;24.10;95.00;;;25.13;40.48;101358.03;4984775;28;20076;-74
2023/05/11 06:12:52;;;;;;;10.50;5.40;;;24.50;93.40;;;26.70;39.82;101377.25;4999508;28;19917;-75
2023/05/11 06:15:18;;;;;;;;;;;24.60;94.40;;;26.47;39.36;101376.94;4984474;28;20418;-76
2023/05/11 06:17:44;;;;;;;9.32;5.63;;;25.30;91.30;;;26.52;39.18;101375.47;4954285;28;19921;-75
2023/05/11 06:20:10;;;;;;;;;;;25.60;91.50;;;26.16;37.44;101378.25;4954935;28;20035;-76
2023/05/11 06:22:36;;;;;;;10.38;5.35;;;25.20;90.60;;;24.98;40.96;101376.53;5005663;28;20326;-76
2023/05/11 06:25:02;;;;;;;9.18;5.32;;;25.00;90.80;;;25.73;40.17;101376.34;4978785;28;20041;-76
2023/05/11 06:27:27;;;;;;;;;;;25.10;92.00;;;25.67;39.01;101375.13;4985493;28;20068;-77
2023/05/11 06:29:54;;;;;;;11.13;5.38;;;25.60;90.60;;;26.21;38.91;101382.34;4967783;28;19918;-77
2023/05/11 06:32:20;;;;;;;9.05;5.35;;;25.70;90.40;;;26.21;38.97;101391.28;4991562;28;20483;-76
2023/05/11 06:34:45;;;;;;;14.32;5.68;;;25.30;90.40;;;24.78;40.85;101378.50;4978772;28;20035;-75
2023/05/11 06:37:14;;;;;;;;;;;25.30;91.20;;;24.91;40.89;101380.84;4973864;28;21402;-76
2023/05/11 06:39:40;;;;;;;11.82;5.93;;;24.90;91.00;;;25.18;40.25;101391.63;4957527;28;19921;-76
2023/05/11 06:42:06;;;;;;;8.98;5.55;;;25.10;90.70;;;26.03;39.06;101398.56;4990441;28;20159;-75
2023/05/11 06:44:33;;;;;;;11.60;5.60;;;24.90;90.40;;;25.12;40.75;101396.75;4987756;28;20041;-75
2023/05/11 06:46:59;;;;;;;8.38;5.25;;;24.80;90.20;;;24.56;40.84;101399.41;4993736;28;20061;-75
2023/05/11 06:49:25;;;;;;;11.20;5.75;;;24.80;90.00;;;24.79;40.59;101398.19;4977847;28;20042;-75
2023/05/11 06:51:51;;;;;;;11.77;5.63;;;24.80;91.00;;;24.63;41.50;101393.44;4987641;28;20057;-76
2023/05/11 06:54:17;;;;;;;11.50;5.60;;;24.50;90.90;;;23.67;42.69;101382.59;4965697;28;20109;-76
2023/05/11 06:56:43;;;;;;;9.15;5.47;;;24.20;91.30;;;23.38;43.09;101383.41;4994898;28;20050;-75
2023/05/11 06:59:09;;;;;;;8.60;5.50;;;23.70;91.30;;;22.70;43.81;101369.78;4971534;28;20406;-76
2023/05/11 07:01:35;;;;;;;10.10;5.78;;;23.30;92.00;;;22.49;44.92;101367.13;4975006;28;20030;-79
2023/05/11 07:04:01;;;;;;;12.65;5.40;;;23.50;92.40;;;23.69;43.17;101377.94;4976617;28;20041;-75
2023/05/11 07:06:28;;;;;;;10.45;5.22;;;23.60;92.20;;;23.70;42.83;101390.41;4984899;28;20034;-75
2023/05/11 07:08:55;;;;;;;14.45;5.53;;;23.80;92.30;;;23.66;42.78;101388.97;4988490;28;20045;-75
2023/05/11 07:11:21;;;;;;;13.73;5.57;;;23.70;92.20;;;23.22;43.59;101381.28;4983857;28;20039;-76
2023/05/11 07:13:47;;;;;;;11.30;4.93;;;23.50;92.40;;;23.24;43.99;101378.44;4950610;28;20534;-77
2023/05/11 07:16:12;;;;;;;;;;;23.50;92.90;;;24.46;42.75;101398.53;4973085;28;20547;-75
2023/05/11 07:18:38;;;;;;;13.73;5.18;;;24.60;92.00;;;25.67;41.31;101420.97;4949149;28;19995;-75
2023/05/11 07:21:04;;;;;;;7.65;5.05;;;25.90;91.20;;;27.30;38.28;101441.19;4950027;28;20093;-74
2023/05/11 07:23:29;;;;;;;;;;;26.00;91.50;;;26.50;38.34;101423.38;4946227;28;20488;-76
2023/05/11 07:25:56;;;;;;;11.13;4.85;;;26.70;86.50;;;24.93;39.99;101416.56;4946559;28;19914;-73
2023/05/11 07:28:23;;;;;;;12.43;5.00;;;25.70;87.40;;;23.59;42.48;101398.59;4962927;28;20035;-75
2023/05/11 07:30:48;;;;;;;9.25;5.13;;;24.60;90.30;;;22.60;44.55;101382.31;4949662;28;20042;-75
2023/05/11 07:33:14;;;;;;;15.98;5.22;;;23.60;91.40;;;21.92;45.84;101374.63;4947503;28;20188;-74
2023/05/11 07:35:40;;;;;;;10.20;5.50;;;22.80;92.60;;;21.43;47.46;101374.22;4950856;28;20411;-75
2023/05/11 07:38:08;;;;;;;;;;;22.70;93.40;;;20.70;48.17;101359.56;4965184;28;20122;-76
2023/05/11 07:40:34;;;;;;;13.40;5.25;;;21.60;94.60;;;20.50;49.68;101361.13;4950298;28;20558;-74
2023/05/11 07:43:00;;;;;;;15.25;4.90;;;21.20;95.30;;;20.18;50.82;101359.13;4948608;28;20038;-75
2023/05/11 07:45:26;;;;;;;9.82;4.95;;;21.20;96.10;;;21.06;49.82;101374.53;4967465;28;20047;-74
2023/05/11 07:47:52;;;;;;;7.43;4.50;;;21.30;95.00;;;20.46;49.39;101367.69;4950566;28;20060;-74
2023/05/11 07:50:18;;;;;;;8.98;4.93;;;21.50;95.60;;;21.37;48.78;101368.50;4956665;28;20578;-75
2023/05/11 07:52:43;;;;;;;;;;;21.50;95.80;;;21.45;48.32;101372.28;4954367;28;20078;-74
2023/05/11 07:55:09;;;;;;;10.55;4.57;;;22.00;95.10;;;21.68;47.83;101380.22;4951022;28;19918;-74
2023/05/11 07:57:36;;;;;;;6.93;4.85;;;22.00;95.20;;;21.83;47.46;101384.28;4952675;28;20042;-73
2023/05/11 08:00:03;;;;;;;9.98;4.88;;;22.50;94.60;;;22.82;46.37;101390.16;4951310;28;20113;-73
2023/05/11 08:02:29;;;;;;;7.25;4.50;;;22.90;94.20;;;22.83;46.51;101380.25;4936813;28;20108;-75
2023/05/11 08:04:55;;;;;;;7.45;4.78;;;23.40;94.30;;;23.87;45.51;101397.78;4942359;28;20042;-74
2023/05/11 08:07:21;;;;;;;6.78;4.35;;;23.80;92.80;;;23.98;44.26;101401.31;4975756;28;20042;-75
2023/05/11 08:09:47;;;;;;;10.65;4.40;;;24.50;92.40;;;25.10;42.76;101412.22;4986593;28;20838;-74
2023/05/11 08:12:14;;;;;;;;;;;24.60;93.00;;;24.83;42.72;101404.97;4984886;28;20038;-74
2023/05/11 08:14:41;;;;;;;7.70;4.05;;;25.40;91.50;;;25.68;41.79;101424.50;4992675;28;19917;-74
2023/05/11 08:17:07;;;;;;;9.20;4.05;;;26.00;91.30;;;26.60;40.37;101432.22;4988054;28;20057;-74
2023/05/11 08:19:33;;;;;;;9.50;3.80;;;26.20;89.20;;;26.27;39.53;101424.91;4990940;28;20047;-76
2023/05/11 08:22:02;;;;;;;9.57;4.00;;;26.40;90.10;;;26.47;39.56;101429.06;4988755;28;20048;-74
2023/05/11 08:24:27;;;;;;;8.68;3.88;;;26.70;88.90;;;27.07;38.64;101435.53;4968935;28;20047;-74
2023/05/11 08:26:53;;;;;;;6.03;3.72;;;27.00;88.50;;;27.31;38.52;101443.75;4984360;28;20052;-74
2023/05/11 08:29:19;;;;;;;10.13;3.60;;;26.80;87.50;;;26.22;39.33;101425.38;4967710;28;20045;-74
2023/05/11 08:31:45;;;;;;;4.97;3.53;;;26.50;86.60;;;25.73;39.95;101433.00;4954426;28;20050;-74
2023/05/11 08:34:11;;;;;;;6.35;3.70;;;26.10;87.50;;;25.07;41.25;101426.81;5005553;28;20041;-75
2023/05/11 08:36:37;;;;;;;7.30;3.63;;;25.80;88.50;;;24.94;40.84;101427.16;4984829;28;20038;-74
2023/05/11 08:39:03;;;;;;;11.32;3.45;;;25.30;90.00;;;24.16;43.01;101413.88;4991497;28;20030;-74
2023/05/11 08:41:30;;;;;;;9.85;3.60;;;24.80;91.00;;;23.73;44.20;101407.06;4985346;28;20082;-74
2023/05/11 08:43:58;;;;;;;10.55;4.03;;;24.60;91.50;;;23.92;44.01;101414.34;4982426;28;20045;-74
2023/05/11 08:46:29;;;;;;;9.18;3.60;;;24.50;90.90;;;23.86;44.19;101408.69;4989332;28;20050;-74
2023/05/11 08:48:57;;;;;;;8.43;3.55;;;24.60;90.80;;;23.94;43.61;101415.03;4982087;28;20092;-74
2023/05/11 08:51:23;;;;;;;13.27;3.40;;;24.60;90.30;;;24.08;42.82;101415.59;4988963;28;20105;-73
2023/05/11 08:53:51;;;;;;;7.53;3.42;;;24.60;91.50;;;23.97;44.22;101413.91;4974729;28;20478;-74
2023/05/11 08:56:18;;;;;;;11.05;3.45;;;24.60;91.80;;;24.09;44.39;101409.25;4985593;28;20092;-73
2023/05/11 08:58:45;;;;;;;7.60;3.45;;;24.60;91.40;;;24.12;44.19;101407.09;4983028;28;20034;-74
2023/05/11 09:01:11;;;;;;;9.65;2.88;;;24.40;90.20;;;22.92;44.26;101393.75;4969678;28;20034;-74
2023/05/11 09:03:40;;;;;;;10.38;2.92;;;24.20;91.40;;;23.34;44.85;101404.34;4988442;28;20049;-74
2023/05/11 09:06:07;;;;;;;7.68;3.17;;;24.10;90.90;;;23.38;43.48;101407.59;4984156;28;20039;-73
2023/05/11 09:08:40;;;;;;;8.18;2.65;;;24.00;91.70;;;23.22;45.10;101407.28;4971973;28;20233;-73
2023/05/11 09:11:07;;;;;;;5.97;3.20;;;23.80;91.00;;;22.68;45.20;101388.69;4964100;28;20042;-73
2023/05/11 09:13:33;;;;;;;8.80;3.35;;;23.70;90.90;;;22.75;44.74;101382.78;4986791;28;20093;-73
2023/05/11 09:16:00;;;;;;;6.07;2.95;;;23.70;91.90;;;23.19;44.82;101396.81;4990352;28;20543;-73
2023/05/11 09:18:29;;;;;;;9.70;2.90;;;23.60;92.30;;;22.82;45.73;101390.16;4980873;28;20061;-74
2023/05/11 09:20:57;;;;;;;6.25;3.08;;;23.60;91.20;;;22.80;44.67;101391.28;4979063;28;20030;-74
2023/05/11 09:23:31;;;;;;;8.65;3.13;;;23.60;91.80;;;22.79;45.26;101393.13;4990469;28;20030;-73
2023/05/11 09:25:57;;;;;;;8.55;3.40;;;23.50;92.10;;;22.71;45.37;101384.88;4987819;28;20034;-73
2023/05/11 09:28:26;;;;;;;8.25;3.58;;;23.50;92.20;;;22.73;45.82;101385.59;4972402;28;20128;-73
2023/05/11 09:30:53;;;;;;;8.63;3.67;;;23.50;91.70;;;22.64;45.59;101381.06;4972400;28;20081;-73
2023/05/11 09:33:24;;;;;;;7.63;3.60;;;23.50;92.10;;;22.76;45.54;101382.63;4975846;28;20031;-74
2023/05/11 09:35:53;;;;;;;6.07;3.38;;;23.40;92.30;;;22.65;46.14;101382.75;4985203;28;20589;-74
2023/05/11 09:38:22;;;;;;;10.00;3.25;;;23.50;92.20;;;22.76;45.87;101379.94;4975799;28;20042;-74
2023/05/11 09:40:55;;;;;;;6.47;3.13;;;23.50;91.80;;;22.92;44.87;101384.84;4989858;28;20034;-72
2023/05/11 09:43:29;;;;;;;11.52;3.33;;;23.60;92.70;;;23.12;45.65;101392.00;4989219;28;20045;-74
2023/05/11 09:46:03;;;;;;;5.25;3.28;;;23.60;92.50;;;23.00;45.49;101389.50;4983821;28;20119;-73
2023/05/11 09:48:32;;;;;;;8.05;2.80;;;23.70;91.70;;;22.96;44.68;101385.41;4981114;28;20069;-73
2023/05/11 09:51:02;;;;;;;6.20;2.85;;;23.60;91.20;;;22.48;45.14;101377.03;4990996;28;20515;-74
2023/05/11 09:53:47;;;;;;;3.90;2.30;;;23.50;91.40;;;22.68;45.01;101387.84;4972781;28;20057;-73
2023/05/11 09:56:16;;;;;;;8.38;2.65;;;23.50;90.80;;;22.65;44.55;101388.09;4984030;28;20061;-74
2023/05/11 09:58:56;;;;;;;4.80;2.08;;;23.30;90.60;;;22.51;44.24;101379.44;4980087;28;20045;-73
2023/05/11 10:01:36;;;;;;;3.38;2.22;;;23.20;90.90;;;22.38;44.40;101386.00;4985680;28;20025;-74
2023/05/11 10:04:09;;;;;;;5.82;2.25;;;23.30;91.30;;;22.67;44.25;101391.50;4979597;28;20026;-74
2023/05/11 10:06:51;;;;;;;3.60;2.00;;;23.50;90.80;;;22.90;43.63;101384.13;4979334;28;20034;-73
2023/05/11 10:09:27;;;;;;;7.28;2.20;;;23.50;87.90;;;22.51;43.14;101373.22;4963051;28;20673;-75
2023/05/11 10:11:55;;;;;;;4.90;2.03;;;23.60;90.30;;;22.92;43.35;101379.47;4974273;28;20038;-75
2023/05/11 10:14:26;;;;;;;10.98;2.30;;;23.70;90.00;;;23.01;42.65;101394.78;4979930;28;20579;-75
2023/05/11 10:16:56;;;;;;;10.60;2.20;;;23.70;88.40;;;22.84;42.43;101385.50;4992212;28;20058;-75